Time;durP1;ratioP1;P1;durP2;ratioP2;P2;SDS_P1;SDS_P2;PMS_P1;PMS_P2;Temp;Humidity;BMP_temperature;BMP_pressure;BME280_temperature;BME280_humidity;BME280_pressure;Samples;Min_cycle;Max_cycle;Signal;HPM_P1;HPM_P2
2023/12/10 00:00:28;;;;;;;;;;;;;;;16.87;44.68;97958.38;10326701;28;1130;-70
2023/12/10 00:05:24;;;;;;;;;;;;;;;16.89;44.56;97966.16;10327192;28;884;-69
2023/12/10 00:10:20;;;;;;;;;;;;;;;16.89;44.60;97981.97;10326369;28;1984;-70
2023/12/10 00:15:15;;;;;;;;;;;;;;;16.88;44.69;97970.59;10326284;28;856;-70
2023/12/10 00:20:11;;;;;;;;;;;;;;;16.86;44.59;97973.31;10326145;28;705;-69
2023/12/10 00:25:08;;;;;;;;;;;;;;;16.84;44.52;97966.47;10325959;28;784;-70
2023/12/10 00:30:04;;;;;;;;;;;;;;;16.84;44.41;97985.72;10325069;28;1958;-70
2023/12/10 00:35:00;;;;;;;;;;;;;;;16.83;44.35;97999.84;10325375;28;1200;-70
2023/12/10 00:39:56;;;;;;;;;;;;;;;16.83;44.35;98012.16;10326229;28;842;-69
2023/12/10 00:44:52;;;;;;;;;;;;;;;16.82;44.56;98003.44;10325571;28;913;-69
2023/12/10 00:49:47;;;;;;;;;;;;;;;16.80;44.54;98015.84;10325369;28;1918;-70
2023/12/10 00:54:43;;;;;;;;;;;;;;;16.81;44.32;98019.31;10325906;28;814;-69
2023/12/10 00:59:39;;;;;;;;;;;;;;;16.80;44.34;98010.56;10325217;28;875;-70
2023/12/10 01:04:35;;;;;;;;;;;;;;;16.78;44.52;98022.97;10325870;28;794;-70
2023/12/10 01:09:32;;;;;;;;;;;;;;;16.80;44.20;98033.41;10325037;28;1889;-70
2023/12/10 01:14:29;;;;;;;;;;;;;;;16.80;44.31;98036.06;10324895;28;883;-69
2023/12/10 01:19:25;;;;;;;;;;;;;;;16.79;44.31;98035.22;10324777;28;959;-69
2023/12/10 01:24:21;;;;;;;;;;;;;;;16.79;44.19;98043.09;10307926;28;742;-70
2023/12/10 01:29:17;;;;;;;;;;;;;;;16.78;44.39;98040.56;10324572;28;1893;-70
2023/12/10 01:34:13;;;;;;;;;;;;;;;16.78;44.19;98072.97;10325253;28;1085;-69
2023/12/10 01:39:09;;;;;;;;;;;;;;;16.76;44.29;98064.31;10323959;28;838;-70
2023/12/10 01:44:04;;;;;;;;;;;;;;;16.77;44.45;98068.66;10329961;28;885;-70
2023/12/10 01:49:00;;;;;;;;;;;;;;;16.77;44.30;98068.66;10332345;28;1914;-70
2023/12/10 01:53:56;;;;;;;;;;;;;;;16.75;44.17;98064.41;10331731;28;941;-70
2023/12/10 01:58:52;;;;;;;;;;;;;;;16.75;44.26;98083.69;10332138;28;853;-70
2023/12/10 02:03:48;;;;;;;;;;;;;;;16.76;43.96;98087.13;10331360;28;815;-70
2023/12/10 02:08:44;;;;;;;;;;;;;;;16.76;44.01;98081.88;10331132;28;1956;-70
2023/12/10 02:13:40;;;;;;;;;;;;;;;16.74;44.13;98084.63;10331583;28;921;-70
2023/12/10 02:18:36;;;;;;;;;;;;;;;16.73;44.20;98098.72;10331432;28;885;-70
2023/12/10 02:23:35;;;;;;;;;;;;;;;16.74;43.99;98110.06;10331407;28;822;-70
2023/12/10 02:28:31;;;;;;;;;;;;;;;16.74;44.14;98107.44;10330408;28;1894;-69
2023/12/10 02:33:27;;;;;;;;;;;;;;;16.74;44.13;98105.69;10330286;28;919;-70
2023/12/10 02:38:23;;;;;;;;;;;;;;;16.72;44.01;98110.19;10330413;28;1530;-69
2023/12/10 02:43:19;;;;;;;;;;;;;;;16.72;44.07;98119.88;10329896;28;1038;-70
2023/12/10 02:48:17;;;;;;;;;;;;;;;16.74;43.98;98132.00;10330453;28;1917;-70
2023/12/10 02:53:13;;;;;;;;;;;;;;;16.73;43.96;98138.19;10329365;28;868;-70
2023/12/10 02:58:09;;;;;;;;;;;;;;;16.72;44.05;98144.38;10329288;28;806;-70
2023/12/10 03:03:05;;;;;;;;;;;;;;;16.69;43.98;98144.59;10329107;28;856;-70
2023/12/10 03:08:00;;;;;;;;;;;;;;;16.69;44.11;98156.88;10328936;28;834;-70
2023/12/10 03:12:56;;;;;;;;;;;;;;;16.64;44.25;98173.81;10328618;28;1882;-70
2023/12/10 03:17:52;;;;;;;;;;;;;;;16.62;43.89;98148.56;10328494;28;818;-70
2023/12/10 03:22:48;;;;;;;;;;;;;;;16.58;44.13;98157.56;10328330;28;1065;-69
2023/12/10 03:27:44;;;;;;;;;;;;;;;16.54;44.05;98150.81;10328247;28;873;-70
2023/12/10 03:32:40;;;;;;;;;;;;;;;16.51;44.11;98157.13;10328211;28;1965;-70
2023/12/10 03:37:36;;;;;;;;;;;;;;;16.47;43.97;98153.00;10328717;28;1318;-70
2023/12/10 03:42:32;;;;;;;;;;;;;;;16.47;44.15;98170.56;10327538;28;1144;-69
2023/12/10 03:47:27;;;;;;;;;;;;;;;16.48;43.98;98180.13;10327307;28;815;-69
2023/12/10 03:52:23;;;;;;;;;;;;;;;16.48;43.87;98180.13;10327196;28;1965;-70
2023/12/10 03:57:19;;;;;;;;;;;;;;;16.52;44.07;98198.25;10327565;28;837;-69
2023/12/10 04:02:15;;;;;;;;;;;;;;;16.54;44.20;98206.06;10327777;28;861;-70
2023/12/10 04:07:11;;;;;;;;;;;;;;;16.57;44.21;98216.38;10325768;28;960;-69
2023/12/10 04:12:07;;;;;;;;;;;;;;;16.57;43.90;98224.28;10326921;28;1898;-69
2023/12/10 04:17:03;;;;;;;;;;;;;;;16.59;44.01;98222.41;10326268;28;888;-69
2023/12/10 04:21:59;;;;;;;;;;;;;;;16.59;43.83;98235.56;10326682;28;838;-69
2023/12/10 04:26:55;;;;;;;;;;;;;;;16.60;44.05;98245.13;10326569;28;929;-69
2023/12/10 04:31:50;;;;;;;;;;;;;;;16.61;43.84;98238.91;10326645;28;1955;-69
2023/12/10 04:36:47;;;;;;;;;;;;;;;16.68;43.51;98237.59;10325629;28;1156;-70
2023/12/10 04:41:43;;;;;;;;;;;;;;;16.64;43.66;98239.59;10326679;28;889;-69
2023/12/10 04:46:39;;;;;;;;;;;;;;;16.66;43.95;98236.84;10326127;28;866;-70
2023/12/10 04:51:35;;;;;;;;;;;;;;;16.71;43.64;98234.78;10325295;28;1902;-70
2023/12/10 04:56:31;;;;;;;;;;;;;;;16.75;43.59;98244.16;10326249;28;914;-69
2023/12/10 05:01:27;;;;;;;;;;;;;;;16.78;43.57;98233.47;10325213;28;886;-69
2023/12/10 05:06:22;;;;;;;;;;;;;;;16.82;43.62;98232.34;10325146;28;838;-70
2023/12/10 05:11:18;;;;;;;;;;;;;;;16.85;43.52;98250.56;10325545;28;1893;-69
2023/12/10 05:16:14;;;;;;;;;;;;;;;16.86;43.58;98247.00;10326105;28;806;-70
2023/12/10 05:21:10;;;;;;;;;;;;;;;16.93;43.30;98254.53;10333659;28;870;-70
2023/12/10 05:26:06;;;;;;;;;;;;;;;16.94;43.33;98258.84;10333666;28;936;-69
2023/12/10 05:31:02;;;;;;;;;;;;;;;16.96;43.49;98272.75;10333099;28;1890;-70
2023/12/10 05:35:58;;;;;;;;;;;;;;;16.98;43.46;98266.44;10331949;28;1449;-69
2023/12/10 05:40:54;;;;;;;;;;;;;;;16.98;43.26;98270.88;10332313;28;821;-70
2023/12/10 05:45:50;;;;;;;;;;;;;;;16.99;43.49;98277.81;10331504;28;901;-70
2023/12/10 05:50:46;;;;;;;;;;;;;;;17.01;43.35;98279.41;10331984;28;1910;-69
2023/12/10 05:55:42;;;;;;;;;;;;;;;17.00;43.25;98288.25;10331101;28;935;-70
2023/12/10 06:00:38;;;;;;;;;;;;;;;17.00;43.31;98283.00;10331539;28;925;-70
2023/12/10 06:05:33;;;;;;;;;;;;;;;17.05;43.46;98282.69;10331392;28;806;-70
2023/12/10 06:10:29;;;;;;;;;;;;;;;17.07;43.11;98288.69;10331826;28;1953;-69
2023/12/10 06:15:25;;;;;;;;;;;;;;;17.08;43.44;98298.28;10331516;28;858;-71
2023/12/10 06:20:21;;;;;;;;;;;;;;;17.13;43.32;98304.09;10330244;28;1051;-72
2023/12/10 06:25:17;;;;;;;;;;;;;;;17.13;43.57;98295.34;10330659;28;938;-73
2023/12/10 06:30:13;;;;;;;;;;;;;;;17.16;43.47;98310.94;10311326;28;1939;-73
2023/12/10 06:35:09;;;;;;;;;;;;;;;17.19;43.50;98308.97;10330383;28;1188;-73
2023/12/10 06:40:05;;;;;;;;;;;;;;;17.20;43.55;98317.72;10330117;28;873;-73
2023/12/10 06:45:01;;;;;;;;;;;;;;;17.18;43.47;98332.78;10330498;28;874;-70
2023/12/10 06:49:57;;;;;;;;;;;;;;;17.20;43.42;98351.94;10330202;28;1914;-73
2023/12/10 06:54:53;;;;;;;;;;;;;;;17.20;43.51;98363.31;10330355;28;842;-72
2023/12/10 06:59:49;;;;;;;;;;;;;;;17.21;43.61;98378.19;10329367;28;783;-73
2023/12/10 07:04:45;;;;;;;;;;;;;;;17.24;43.66;98396.44;10329939;28;818;-76
2023/12/10 07:09:41;;;;;;;;;;;;;;;17.22;43.53;98394.84;10328845;28;1945;-78
2023/12/10 07:14:36;;;;;;;;;;;;;;;17.27;43.49;98400.66;10328755;28;874;-72
2023/12/10 07:19:32;;;;;;;;;;;;;;;17.26;43.76;98402.44;10329144;28;790;-73
2023/12/10 07:24:30;;;;;;;;;;;;;;;17.29;43.57;98404.03;10328368;28;778;-73
2023/12/10 07:29:26;;;;;;;;;;;;;;;17.28;43.51;98426.88;10328805;28;1886;-72
2023/12/10 07:34:22;;;;;;;;;;;;;;;17.29;43.68;98431.22;10328162;28;1100;-71
2023/12/10 07:39:18;;;;;;;;;;;;;;;17.24;43.81;98430.66;10327518;28;869;-72
2023/12/10 07:44:14;;;;;;;;;;;;;;;17.21;43.88;98441.41;10328096;28;932;-73
2023/12/10 07:49:10;;;;;;;;;;;;;;;17.27;43.60;98441.00;10327990;28;1911;-72
2023/12/10 07:54:06;;;;;;;;;;;;;;;17.27;43.82;98440.16;10327739;28;942;-76
2023/12/10 07:59:02;;;;;;;;;;;;;;;17.23;43.99;98463.19;10327519;28;857;-74
2023/12/10 08:03:58;;;;;;;;;;;;;;;17.23;43.73;98479.00;10327256;28;887;-73
2023/12/10 08:08:54;;;;;;;;;;;;;;;17.26;43.69;98499.88;10326448;28;1961;-73
2023/12/10 08:13:51;;;;;;;;;;;;;;;17.22;43.80;98505.44;10327285;28;851;-72
2023/12/10 08:18:47;;;;;;;;;;;;;;;17.22;43.98;98511.53;10326255;28;779;-72
2023/12/10 08:23:43;;;;;;;;;;;;;;;17.22;43.85;98529.13;10326060;28;886;-72
2023/12/10 08:28:39;;;;;;;;;;;;;;;17.24;43.79;98525.47;10325943;28;1890;-72
2023/12/10 08:33:35;;;;;;;;;;;;;;;17.25;43.56;98523.69;10325244;28;810;-73
2023/12/10 08:38:31;;;;;;;;;;;;;;;17.26;43.57;98533.25;10325078;28;1219;-73
2023/12/10 08:43:27;;;;;;;;;;;;;;;17.26;43.71;98557.81;10326121;28;841;-73
2023/12/10 08:48:22;;;;;;;;;;;;;;;17.29;43.70;98564.66;10325445;28;1914;-73
2023/12/10 08:53:18;;;;;;;;;;;;;;;17.27;43.83;98574.47;10325405;28;810;-73
2023/12/10 08:58:14;;;;;;;;;;;;;;;17.27;43.46;98588.47;10325335;28;814;-74
2023/12/10 09:03:10;;;;;;;;;;;;;;;17.26;43.71;98601.72;10325860;28;893;-72
2023/12/10 09:08:06;;;;;;;;;;;;;;;17.25;43.56;98621.13;10325104;28;994;-73
2023/12/10 09:13:02;;;;;;;;;;;;;;;17.24;43.47;98620.28;10325527;28;1894;-75
2023/12/10 09:17:58;;;;;;;;;;;;;;;17.23;43.63;98630.88;10324922;28;883;-72
2023/12/10 09:22:54;;;;;;;;;;;;;;;17.27;43.51;98651.69;10326102;28;774;-72
2023/12/10 09:27:50;;;;;;;;;;;;;;;17.26;43.43;98659.66;10325375;28;794;-72
2023/12/10 09:32:46;;;;;;;;;;;;;;;17.26;43.44;98657.88;10324837;28;1951;-72
2023/12/10 09:37:42;;;;;;;;;;;;;;;17.26;43.55;98657.03;10325532;28;1097;-72
2023/12/10 09:42:38;;;;;;;;;;;;;;;17.28;43.27;98663.91;10325056;28;1004;-72
2023/12/10 09:47:34;;;;;;;;;;;;;;;17.26;43.36;98672.84;10324262;28;829;-72
2023/12/10 09:52:30;;;;;;;;;;;;;;;17.25;43.42;98665.88;10324797;28;1910;-72
2023/12/10 09:57:28;;;;;;;;;;;;;;;17.24;43.43;98672.94;10324227;28;972;-74
2023/12/10 10:02:23;;;;;;;;;;;;;;;17.28;43.64;98678.88;10325382;28;830;-72
2023/12/10 10:07:19;;;;;;;;;;;;;;;17.30;43.55;98692.81;10332131;28;850;-73
2023/12/10 10:12:16;;;;;;;;;;;;;;;17.31;43.48;98695.31;10331248;28;1893;-72
2023/12/10 10:17:12;;;;;;;;;;;;;;;17.33;43.61;98699.69;10330813;28;934;-72
2023/12/10 10:22:08;;;;;;;;;;;;;;;17.34;43.51;98696.09;10330297;28;889;-71
2023/12/10 10:27:03;;;;;;;;;;;;;;;17.30;43.25;98696.28;10330651;28;759;-71
2023/12/10 10:31:59;;;;;;;;;;;;;;;17.33;43.44;98689.16;10330542;28;1961;-71
2023/12/10 10:36:55;;;;;;;;;;;;;;;17.35;43.24;98698.66;10330174;28;1313;-81
2023/12/10 10:41:51;;;;;;;;;;;;;;;17.29;43.45;98694.59;10330269;28;857;-71
2023/12/10 10:46:47;;;;;;;;;;;;;;;17.31;43.38;98690.06;10329474;28;759;-71
2023/12/10 10:51:44;;;;;;;;;;;;;;;17.31;43.38;98700.59;10330244;28;1914;-71
2023/12/10 10:56:40;;;;;;;;;;;;;;;17.29;43.19;98709.53;10329225;28;879;-70
2023/12/10 11:01:35;;;;;;;;;;;;;;;17.30;43.47;98709.44;10329092;28;864;-70
2023/12/10 11:06:31;;;;;;;;;;;;;;;17.34;43.26;98728.53;10329451;28;854;-70
2023/12/10 11:11:27;;;;;;;;;;;;;;;17.32;43.07;98727.81;10328657;28;1875;-70
2023/12/10 11:16:23;;;;;;;;;;;;;;;17.33;43.13;98731.28;10327166;28;814;-78
2023/12/10 11:21:19;;;;;;;;;;;;;;;17.37;43.25;98709.09;10328862;28;795;-70
2023/12/10 11:26:15;;;;;;;;;;;;;;;17.33;43.16;98716.31;10328559;28;868;-70
2023/12/10 11:31:11;;;;;;;;;;;;;;;17.39;43.23;98718.59;10328217;28;1898;-69
2023/12/10 11:36:07;;;;;;;;;;;;;;;17.49;42.52;98718.91;10327932;28;1239;-69
2023/12/10 11:41:03;;;;;;;;;;;;;;;17.39;42.99;98729.13;10328081;28;807;-70
2023/12/10 11:45:59;;;;;;;;;;;;;;;17.40;43.08;98722.94;10328046;28;855;-71
2023/12/10 11:50:55;;;;;;;;;;;;;;;17.41;43.11;98731.69;10326951;28;1969;-70
2023/12/10 11:55:52;;;;;;;;;;;;;;;17.43;42.49;98724.56;10326823;28;794;-70
2023/12/10 12:00:48;;;;;;;;;;;;;;;17.45;42.92;98735.84;10327198;28;830;-71
2023/12/10 12:05:44;;;;;;;;;;;;;;;17.47;42.94;98732.16;10327082;28;814;-70
2023/12/10 12:10:40;;;;;;;;;;;;;;;17.49;42.93;98729.44;10326253;28;1957;-70
2023/12/10 12:15:36;;;;;;;;;;;;;;;17.53;42.68;98720.44;10325821;28;771;-72
2023/12/10 12:20:31;;;;;;;;;;;;;;;17.62;42.80;98704.06;10325714;28;918;-70
2023/12/10 12:25:28;;;;;;;;;;;;;;;17.58;42.84;98701.72;10325328;28;869;-70
2023/12/10 12:30:26;;;;;;;;;;;;;;;17.53;43.23;98702.00;10325728;28;2010;-70
2023/12/10 12:35:22;;;;;;;;;;;;;;;17.64;42.89;98696.94;10325339;28;1275;-70
2023/12/10 12:40:20;;;;;;;;;;;;;;;17.69;43.16;98705.41;10325473;28;877;-72
2023/12/10 12:45:16;;;;;;;;;;;;;;;17.46;43.58;98713.84;10326228;28;783;-71
2023/12/10 12:50:12;;;;;;;;;;;;;;;17.50;43.40;98689.84;10325656;28;1969;-72
2023/12/10 12:55:08;;;;;;;;;;;;;;;17.58;43.32;98686.78;10325168;28;863;-73
2023/12/10 13:00:04;;;;;;;;;;;;;;;17.56;43.58;98680.75;10324428;28;1109;-72
2023/12/10 13:05:00;;;;;;;;;;;;;;;17.59;43.36;98688.47;10324916;28;931;-73
2023/12/10 13:09:56;;;;;;;;;;;;;;;17.56;43.45;98678.09;10324808;28;1886;-73
2023/12/10 13:14:53;;;;;;;;;;;;;;;17.53;43.53;98680.94;10324739;28;811;-72
2023/12/10 13:19:49;;;;;;;;;;;;;;;17.53;43.61;98680.94;10325242;28;822;-73
2023/12/10 13:24:45;;;;;;;;;;;;;;;17.54;43.34;98677.34;10325330;28;846;-72
2023/12/10 13:29:41;;;;;;;;;;;;;;;17.52;43.65;98668.66;10325051;28;1957;-74
2023/12/10 13:34:37;;;;;;;;;;;;;;;17.51;43.79;98664.34;10323971;28;1097;-73
2023/12/10 13:39:33;;;;;;;;;;;;;;;17.51;43.77;98644.13;10328561;28;936;-71
2023/12/10 13:44:29;;;;;;;;;;;;;;;17.46;43.82;98643.53;10332034;28;756;-73
2023/12/10 13:49:24;;;;;;;;;;;;;;;17.50;43.83;98631.03;10331751;28;1910;-72
2023/12/10 13:54:20;;;;;;;;;;;;;;;17.51;43.81;98640.66;10332249;28;869;-74
2023/12/10 13:59:16;;;;;;;;;;;;;;;17.47;43.78;98639.97;10332306;28;861;-72
2023/12/10 14:04:12;;;;;;;;;;;;;;;17.49;43.89;98639.88;10331339;28;782;-73
2023/12/10 14:09:10;;;;;;;;;;;;;;;17.51;43.96;98640.66;10330955;28;1957;-72
2023/12/10 14:14:06;;;;;;;;;;;;;;;17.46;43.87;98635.63;10331556;28;845;-72
2023/12/10 14:19:02;;;;;;;;;;;;;;;17.49;43.70;98632.81;10331286;28;792;-72
2023/12/10 14:23:58;;;;;;;;;;;;;;;17.47;43.90;98657.56;10330543;28;881;-76
2023/12/10 14:28:54;;;;;;;;;;;;;;;17.44;43.59;98647.22;10330290;28;1893;-73
2023/12/10 14:33:50;;;;;;;;;;;;;;;17.44;44.13;98641.94;10330178;28;822;-73
2023/12/10 14:38:46;;;;;;;;;;;;;;;17.41;43.90;98636.84;10331155;28;922;-73
2023/12/10 14:43:42;;;;;;;;;;;;;;;17.40;44.13;98629.91;10329844;28;863;-73
2023/12/10 14:48:38;;;;;;;;;;;;;;;17.36;43.92;98633.66;10329590;28;1981;-73
2023/12/10 14:53:34;;;;;;;;;;;;;;;17.29;44.12;98628.75;10328994;28;863;-74
2023/12/10 14:58:30;;;;;;;;;;;;;;;17.31;44.31;98607.56;10329282;28;934;-74
2023/12/10 15:03:25;;;;;;;;;;;;;;;17.29;44.19;98607.69;10328767;28;991;-71
2023/12/10 15:08:21;;;;;;;;;;;;;;;17.31;44.59;98605.78;10328365;28;814;-74
2023/12/10 15:13:17;;;;;;;;;;;;;;;17.32;44.31;98585.59;10328793;28;1965;-74
2023/12/10 15:18:13;;;;;;;;;;;;;;;17.31;44.41;98592.63;10328617;28;819;-73
2023/12/10 15:23:09;;;;;;;;;;;;;;;17.35;44.47;98588.03;10328970;28;857;-74
2023/12/10 15:28:05;;;;;;;;;;;;;;;17.36;44.41;98583.59;10328276;28;779;-73
2023/12/10 15:33:01;;;;;;;;;;;;;;;17.38;44.34;98574.66;10328389;28;1886;-73
2023/12/10 15:37:58;;;;;;;;;;;;;;;17.42;44.18;98570.06;10327652;28;1438;-73
2023/12/10 15:42:54;;;;;;;;;;;;;;;17.40;44.06;98566.69;10328421;28;885;-74
2023/12/10 15:47:50;;;;;;;;;;;;;;;17.43;44.00;98577.88;10328080;28;888;-73
2023/12/10 15:52:45;;;;;;;;;;;;;;;17.46;44.16;98582.13;10326570;28;1969;-73
2023/12/10 15:57:41;;;;;;;;;;;;;;;17.46;44.30;98576.84;10327003;28;898;-73
2023/12/10 16:02:38;;;;;;;;;;;;;;;17.44;44.19;98563.75;10326750;28;1004;-73
2023/12/10 16:07:34;;;;;;;;;;;;;;;17.46;44.28;98553.97;10327449;28;854;-73
2023/12/10 16:12:30;;;;;;;;;;;;;;;17.47;44.05;98541.66;10326954;28;1901;-74
2023/12/10 16:17:25;;;;;;;;;;;;;;;17.49;44.07;98540.63;10326162;28;873;-73
2023/12/10 16:22:21;;;;;;;;;;;;;;;17.47;44.11;98534.59;10326738;28;863;-73
2023/12/10 16:27:17;;;;;;;;;;;;;;;17.47;43.70;98521.41;10326649;28;780;-73
2023/12/10 16:32:15;;;;;;;;;;;;;;;17.47;43.87;98466.09;10326354;28;1955;-74
2023/12/10 16:37:10;;;;;;;;;;;;;;;17.50;43.84;98478.22;10326042;28;1178;-74
2023/12/10 16:42:06;;;;;;;;;;;;;;;17.49;43.98;98447.56;10325436;28;1007;-73
2023/12/10 16:47:02;;;;;;;;;;;;;;;17.48;44.09;98437.97;10325668;28;893;-73
2023/12/10 16:51:58;;;;;;;;;;;;;;;17.50;43.85;98428.16;10325403;28;1914;-74
2023/12/10 16:56:54;;;;;;;;;;;;;;;17.50;43.80;98449.25;10326014;28;833;-73
2023/12/10 17:01:52;;;;;;;;;;;;;;;17.51;44.00;98406.19;10325135;28;871;-73
2023/12/10 17:06:48;;;;;;;;;;;;;;;17.51;43.89;98419.34;10325060;28;839;-73
2023/12/10 17:11:44;;;;;;;;;;;;;;;17.50;43.85;98383.38;10324996;28;1894;-72
2023/12/10 17:16:40;;;;;;;;;;;;;;;17.53;43.73;98367.41;10333179;28;755;-73
2023/12/10 17:21:36;;;;;;;;;;;;;;;17.56;43.89;98361.09;10333770;28;877;-73
2023/12/10 17:26:31;;;;;;;;;;;;;;;17.55;43.60;98348.84;10333078;28;938;-73
2023/12/10 17:31:27;;;;;;;;;;;;;;;17.55;43.67;98327.78;10314620;28;1910;-72
2023/12/10 17:36:23;;;;;;;;;;;;;;;17.57;43.59;98300.38;10291517;28;1144;-72
2023/12/10 17:41:19;;;;;;;;;;;;;;;17.55;43.47;98291.72;10329309;28;1203;-72
2023/12/10 17:46:15;;;;;;;;;;;;;;;17.57;43.74;98270.56;10332635;28;932;-73
2023/12/10 17:51:11;;;;;;;;;;;;;;;17.59;43.74;98260.78;10331896;28;1910;-73
2023/12/10 17:56:08;;;;;;;;;;;;;;;17.59;43.40;98256.34;10331615;28;877;-73
2023/12/10 18:01:04;;;;;;;;;;;;;;;17.57;43.71;98233.69;10291972;28;1628;-73
2023/12/10 18:06:01;;;;;;;;;;;;;;;17.63;43.53;98212.19;10290462;28;981;-75
2023/12/10 18:10:56;;;;;;;;;;;;;;;17.59;43.52;98193.13;10289225;28;1875;-72
2023/12/10 18:15:53;;;;;;;;;;;;;;;17.62;43.49;98186.81;10290722;28;956;-72
2023/12/10 18:20:49;;;;;;;;;;;;;;;17.63;43.53;98170.03;10289563;28;986;-72
2023/12/10 18:25:45;;;;;;;;;;;;;;;17.65;43.29;98155.81;10288138;28;777;-72
2023/12/10 18:30:41;;;;;;;;;;;;;;;17.62;43.59;98134.94;10289288;28;1945;-72
2023/12/10 18:35:37;;;;;;;;;;;;;;;17.67;43.40;98110.91;10288885;28;1160;-72
2023/12/10 18:40:34;;;;;;;;;;;;;;;17.68;43.47;98107.31;10288958;28;791;-72
2023/12/10 18:45:30;;;;;;;;;;;;;;;17.65;43.73;98073.28;10289405;28;824;-72
2023/12/10 18:50:26;;;;;;;;;;;;;;;17.67;43.49;98040.63;10289056;28;1914;-73
2023/12/10 18:55:22;;;;;;;;;;;;;;;17.67;43.66;98005.53;10288843;28;810;-73
2023/12/10 19:00:20;;;;;;;;;;;;;;;17.65;43.60;97987.19;10288113;28;879;-73
2023/12/10 19:05:19;;;;;;;;;;;;;;;17.68;43.61;97978.22;10288613;28;953;-72
2023/12/10 19:10:15;;;;;;;;;;;;;;;17.63;43.64;97973.28;10313114;28;1882;-73
2023/12/10 19:15:11;;;;;;;;;;;;;;;17.66;43.66;97966.97;10369509;28;909;-72
2023/12/10 19:20:06;;;;;;;;;;;;;;;17.71;43.62;97965.69;10369944;28;858;-73
2023/12/10 19:25:02;;;;;;;;;;;;;;;17.69;43.83;97961.47;10369733;28;872;-73
2023/12/10 19:29:58;;;;;;;;;;;;;;;17.65;43.81;97962.63;10368806;28;1885;-72
2023/12/10 19:34:54;;;;;;;;;;;;;;;17.67;43.68;97945.75;10368868;28;1100;-72
2023/12/10 19:39:50;;;;;;;;;;;;;;;17.70;43.64;97968.41;10369353;28;933;-73
2023/12/10 19:44:46;;;;;;;;;;;;;;;17.65;43.73;97958.19;10368951;28;765;-73
2023/12/10 19:49:42;;;;;;;;;;;;;;;17.67;43.58;97964.22;10369273;28;1910;-73
2023/12/10 19:54:38;;;;;;;;;;;;;;;17.67;43.53;97953.66;10367971;28;881;-73
2023/12/10 19:59:35;;;;;;;;;;;;;;;17.63;43.76;97957.50;10368333;28;954;-73
2023/12/10 20:04:31;;;;;;;;;;;;;;;17.66;43.54;97962.53;10368200;28;911;-71
2023/12/10 20:09:27;;;;;;;;;;;;;;;17.66;43.61;97975.72;10368562;28;1954;-72
2023/12/10 20:14:23;;;;;;;;;;;;;;;17.64;43.54;97961.78;10368486;28;802;-73
2023/12/10 20:19:19;;;;;;;;;;;;;;;17.62;43.79;97974.22;10367615;28;874;-73
2023/12/10 20:24:15;;;;;;;;;;;;;;;17.68;43.69;97970.31;10366930;28;821;-72
2023/12/10 20:29:11;;;;;;;;;;;;;;;17.65;43.44;97955.56;10367855;28;1898;-73
2023/12/10 20:34:07;;;;;;;;;;;;;;;17.63;43.57;97960.13;10367301;28;1108;-72
2023/12/10 20:39:03;;;;;;;;;;;;;;;17.63;43.54;97925.88;10367044;28;886;-72
2023/12/10 20:43:59;;;;;;;;;;;;;;;17.57;43.58;97951.81;10367503;28;1022;-72
2023/12/10 20:48:55;;;;;;;;;;;;;;;17.61;43.48;97956.75;10365898;28;1910;-73
2023/12/10 20:53:51;;;;;;;;;;;;;;;17.57;43.64;97939.47;10367286;28;869;-73
2023/12/10 20:58:47;;;;;;;;;;;;;;;17.52;43.88;97955.59;10366445;28;993;-73
2023/12/10 21:03:43;;;;;;;;;;;;;;;17.51;43.85;97950.44;10367030;28;912;-72
2023/12/10 21:08:39;;;;;;;;;;;;;;;17.57;43.73;97954.44;10366326;28;905;-73
2023/12/10 21:13:35;;;;;;;;;;;;;;;17.52;43.76;97960.84;10366186;28;1897;-73
2023/12/10 21:18:31;;;;;;;;;;;;;;;17.50;43.78;97959.28;10366086;28;779;-73
2023/12/10 21:23:27;;;;;;;;;;;;;;;17.52;43.86;97967.91;10365961;28;854;-73
2023/12/10 21:28:23;;;;;;;;;;;;;;;17.51;43.79;97964.44;10365389;28;1006;-72
2023/12/10 21:33:19;;;;;;;;;;;;;;;17.52;44.06;97946.84;10365121;28;1897;-72
2023/12/10 21:38:14;;;;;;;;;;;;;;;17.49;43.88;97953.19;10366036;28;1721;-73
2023/12/10 21:43:10;;;;;;;;;;;;;;;17.50;43.91;97968.03;10365832;28;920;-72
2023/12/10 21:48:07;;;;;;;;;;;;;;;17.47;44.18;97962.97;10364853;28;1305;-73
2023/12/10 21:53:03;;;;;;;;;;;;;;;17.47;44.14;97975.31;10365368;28;1910;-73
2023/12/10 21:57:59;;;;;;;;;;;;;;;17.46;44.26;97977.09;10366130;28;853;-73
2023/12/10 22:02:55;;;;;;;;;;;;;;;17.46;44.00;97978.91;10372987;28;975;-73
2023/12/10 22:07:51;;;;;;;;;;;;;;;17.41;44.19;98007.34;10372825;28;769;-72
2023/12/10 22:12:47;;;;;;;;;;;;;;;17.37;44.29;98009.38;10373674;28;1959;-72
2023/12/10 22:17:43;;;;;;;;;;;;;;;17.33;44.17;98017.56;10372468;28;841;-72
2023/12/10 22:22:39;;;;;;;;;;;;;;;17.32;44.30;98016.75;10373188;28;795;-72
2023/12/10 22:27:35;;;;;;;;;;;;;;;17.25;44.60;98032.09;10371991;28;1161;-73
2023/12/10 22:32:31;;;;;;;;;;;;;;;17.22;44.63;98037.59;10371851;28;1961;-72
2023/12/10 22:37:27;;;;;;;;;;;;;;;17.19;44.45;98035.16;10372308;28;1850;-72
2023/12/10 22:42:23;;;;;;;;;;;;;;;17.13;44.70;98042.63;10372722;28;842;-72
2023/12/10 22:47:19;;;;;;;;;;;;;;;17.11;44.75;98045.38;10371293;28;920;-72
2023/12/10 22:52:14;;;;;;;;;;;;;;;17.05;44.60;98056.28;10371054;28;1910;-73
2023/12/10 22:57:11;;;;;;;;;;;;;;;17.06;44.67;98071.16;10370895;28;926;-73
2023/12/10 23:02:07;;;;;;;;;;;;;;;17.04;44.82;98055.47;10371298;28;785;-73
2023/12/10 23:07:03;;;;;;;;;;;;;;;16.92;45.02;98061.53;10370538;28;758;-72
2023/12/10 23:11:59;;;;;;;;;;;;;;;16.96;44.86;98081.44;10369611;28;1909;-72
2023/12/10 23:16:55;;;;;;;;;;;;;;;16.97;44.91;98079.66;10370125;28;812;-73
2023/12/10 23:21:51;;;;;;;;;;;;;;;16.90;45.09;98089.75;10369889;28;863;-72
2023/12/10 23:26:47;;;;;;;;;;;;;;;16.83;45.20;98088.47;10369663;28;922;-72
2023/12/10 23:31:43;;;;;;;;;;;;;;;16.78;45.23;98085.28;10369574;28;1894;-72
2023/12/10 23:36:39;;;;;;;;;;;;;;;16.76;45.19;98080.09;10369512;28;1096;-73
2023/12/10 23:41:36;;;;;;;;;;;;;;;16.74;45.31;98079.38;10369125;28;956;-72
2023/12/10 23:46:32;;;;;;;;;;;;;;;16.71;45.36;98086.59;10368902;28;969;-73
2023/12/10 23:51:29;;;;;;;;;;;;;;;16.71;45.31;98083.97;10369492;28;1902;-73
2023/12/10 23:56:25;;;;;;;;;;;;;;;16.68;45.37;98084.19;10368485;28;988;-73
